createdAt,value
2019-05-29T00:00:56.307Z,10.38
2019-05-29T00:03:27.233Z,10.38
2019-05-29T00:05:58.508Z,10.38
2019-05-29T00:08:29.522Z,10.34
2019-05-29T00:11:00.654Z,10.35
2019-05-29T00:13:31.564Z,10.35
2019-05-29T00:16:02.724Z,10.32
2019-05-29T00:18:33.797Z,10.33
2019-05-29T00:21:06.259Z,10.33
2019-05-29T00:23:37.256Z,10.31
2019-05-29T00:26:08.301Z,10.29
2019-05-29T00:28:39.390Z,10.28
2019-05-29T00:31:13.977Z,10.27
2019-05-29T00:33:45.321Z,10.22
2019-05-29T00:36:16.557Z,10.20
2019-05-29T00:38:47.944Z,10.21
2019-05-29T00:41:19.010Z,10.19
2019-05-29T00:43:50.300Z,10.16
2019-05-29T00:46:21.356Z,10.13
2019-05-29T00:48:52.585Z,10.14
2019-05-29T00:51:23.558Z,10.15
2019-05-29T00:53:54.971Z,10.11
2019-05-29T00:56:26.022Z,10.10
2019-05-29T00:58:56.243Z,10.09
2019-05-29T01:01:27.340Z,10.07
2019-05-29T01:03:58.336Z,10.04
2019-05-29T01:06:29.441Z,10.02
2019-05-29T01:09:00.510Z,10.00
2019-05-29T01:11:31.651Z,9.97
2019-05-29T01:14:02.622Z,9.94
2019-05-29T01:16:33.858Z,9.90
2019-05-29T01:19:22.928Z,9.90
2019-05-29T01:21:55.463Z,9.89
2019-05-29T01:24:27.188Z,9.87
2019-05-29T01:26:58.467Z,9.87
2019-05-29T01:29:29.451Z,9.86
2019-05-29T01:32:00.884Z,9.85
2019-05-29T01:34:31.796Z,9.85
2019-05-29T01:37:01.991Z,9.82
2019-05-29T01:39:33.174Z,9.77
2019-05-29T01:42:04.215Z,9.73
2019-05-29T01:44:35.611Z,9.67
2019-05-29T01:47:06.632Z,9.65
2019-05-29T01:49:37.786Z,9.65
2019-05-29T01:52:08.761Z,9.65
2019-05-29T01:54:40.588Z,9.64
2019-05-29T01:57:11.667Z,9.66
2019-05-29T01:59:42.869Z,9.64
2019-05-29T02:02:13.893Z,9.64
2019-05-29T02:04:45.297Z,9.69
2019-05-29T02:07:16.167Z,9.72
2019-05-29T02:09:46.315Z,9.73
2019-05-29T02:12:19.286Z,9.72
2019-05-29T02:14:49.348Z,9.70
2019-05-29T02:17:21.792Z,9.76
2019-05-29T02:19:52.860Z,9.82
2019-05-29T02:22:24.875Z,9.88
2019-05-29T02:24:56.140Z,9.93
2019-05-29T02:27:27.714Z,9.98
2019-05-29T02:29:58.755Z,9.98
2019-05-29T02:32:30.009Z,10.04
2019-05-29T02:35:00.971Z,10.07
2019-05-29T02:37:32.271Z,10.13
2019-05-29T02:40:04.435Z,10.19
2019-05-29T02:42:35.678Z,10.23
2019-05-29T02:45:08.584Z,10.24
2019-05-29T02:47:38.766Z,10.27
2019-05-29T02:50:10.404Z,10.26
2019-05-29T02:52:41.356Z,10.24
2019-05-29T02:55:12.734Z,10.18
2019-05-29T02:57:43.740Z,10.06
2019-05-29T03:00:15.267Z,10.03
2019-05-29T03:02:46.291Z,10.01
2019-05-29T03:05:17.585Z,10.02
2019-05-29T03:07:48.874Z,10.03
2019-05-29T03:10:20.142Z,10.08
2019-05-29T03:12:51.329Z,10.10
2019-05-29T03:15:23.563Z,10.11
2019-05-29T03:17:55.061Z,10.03
2019-05-29T03:20:25.981Z,10.03
2019-05-29T03:22:57.293Z,10.03
2019-05-29T03:25:28.467Z,9.99
2019-05-29T03:27:59.677Z,10.01
2019-05-29T03:30:36.802Z,9.97
2019-05-29T03:33:03.514Z,9.94
2019-05-29T03:35:43.965Z,9.98
2019-05-29T03:38:07.399Z,10.05
2019-05-29T03:40:38.741Z,10.11
2019-05-29T03:43:09.941Z,10.14
2019-05-29T03:45:40.951Z,10.16
2019-05-29T03:48:12.773Z,10.20
2019-05-29T03:50:43.838Z,10.19
2019-05-29T03:53:14.890Z,10.20
2019-05-29T03:55:45.930Z,10.22
2019-05-29T03:58:16.175Z,10.23
2019-05-29T04:00:48.874Z,10.28
2019-05-29T04:03:20.031Z,10.27
2019-05-29T04:05:51.102Z,10.32
2019-05-29T04:08:22.003Z,10.38
2019-05-29T04:10:53.724Z,10.39
2019-05-29T04:13:24.687Z,10.45
2019-05-29T04:15:58.654Z,10.49
2019-05-29T04:18:31.589Z,10.54
2019-05-29T04:21:03.616Z,10.55
2019-05-29T04:23:36.270Z,10.52
2019-05-29T04:26:09.096Z,10.51
2019-05-29T04:28:40.234Z,10.54
2019-05-29T04:31:10.438Z,10.55
2019-05-29T04:33:41.566Z,10.57
2019-05-29T04:36:12.522Z,10.67
2019-05-29T04:38:43.580Z,10.68
2019-05-29T04:41:14.637Z,10.70
2019-05-29T04:43:45.799Z,10.80
2019-05-29T04:46:16.778Z,10.83
2019-05-29T04:48:47.853Z,10.83
2019-05-29T04:51:20.218Z,10.92
2019-05-29T04:53:51.443Z,11.03
2019-05-29T04:56:22.416Z,11.13
2019-05-29T04:58:53.690Z,11.22
2019-05-29T05:01:24.711Z,11.38
2019-05-29T05:03:54.811Z,11.41
2019-05-29T05:06:25.981Z,11.23
2019-05-29T05:08:56.994Z,11.04
2019-05-29T05:11:29.355Z,11.04
2019-05-29T05:14:01.749Z,11.03
2019-05-29T05:16:33.665Z,11.12
2019-05-29T05:19:04.794Z,11.29
2019-05-29T05:21:36.092Z,11.41
2019-05-29T05:24:07.079Z,11.58
2019-05-29T05:26:38.520Z,11.65
2019-05-29T05:29:09.478Z,11.62
2019-05-29T05:31:41.006Z,11.40
2019-05-29T05:34:12.246Z,11.35
2019-05-29T05:36:44.432Z,11.39
2019-05-29T05:39:15.366Z,11.42
2019-05-29T05:41:45.683Z,11.40
2019-05-29T05:44:17.152Z,11.48
2019-05-29T05:46:48.190Z,11.80
2019-05-29T05:49:19.439Z,11.85
2019-05-29T05:51:50.331Z,12.14
2019-05-29T05:54:21.642Z,12.15
2019-05-29T05:56:53.681Z,11.99
2019-05-29T05:59:27.170Z,12.13
2019-05-29T06:01:58.108Z,11.97
2019-05-29T06:04:35.957Z,11.79
2019-05-29T06:07:06.937Z,11.75
2019-05-29T06:09:38.279Z,11.95
2019-05-29T06:12:09.170Z,12.24
2019-05-29T06:14:40.563Z,12.33
2019-05-29T06:17:12.042Z,12.32
2019-05-29T06:19:43.189Z,12.41
2019-05-29T06:22:14.464Z,12.81
2019-05-29T06:24:45.476Z,12.97
2019-05-29T06:27:16.696Z,12.99
2019-05-29T06:29:47.681Z,13.11
2019-05-29T06:32:18.910Z,13.38
2019-05-29T06:34:49.820Z,13.44
2019-05-29T06:37:21.029Z,13.59
2019-05-29T06:39:52.012Z,13.65
2019-05-29T06:42:23.268Z,13.46
2019-05-29T06:44:54.235Z,13.42
2019-05-29T06:47:24.418Z,13.35
2019-05-29T06:49:55.565Z,13.18
2019-05-29T06:52:26.487Z,12.94
2019-05-29T06:54:57.953Z,12.68
2019-05-29T06:57:28.994Z,12.78
2019-05-29T07:00:00.410Z,12.69
2019-05-29T07:02:31.985Z,12.73
2019-05-29T07:05:03.677Z,12.90
2019-05-29T07:07:35.967Z,13.05
2019-05-29T07:10:07.602Z,12.77
2019-05-29T07:12:38.595Z,12.88
2019-05-29T07:15:10.114Z,12.91
2019-05-29T07:17:40.991Z,13.01
2019-05-29T07:20:14.181Z,13.13
2019-05-29T07:22:45.237Z,13.31
2019-05-29T07:25:15.538Z,13.30
2019-05-29T07:27:47.058Z,13.23
2019-05-29T07:30:19.978Z,13.33
2019-05-29T07:32:57.283Z,13.44
2019-05-29T07:35:24.335Z,13.46
2019-05-29T07:37:55.669Z,13.34
2019-05-29T07:40:26.857Z,13.32
2019-05-29T07:42:58.164Z,13.52
2019-05-29T07:45:29.139Z,13.87
2019-05-29T07:48:00.471Z,14.19
2019-05-29T07:50:31.481Z,14.48
2019-05-29T07:53:02.649Z,14.59
2019-05-29T07:55:33.570Z,14.69
2019-05-29T07:58:03.740Z,14.56
2019-05-29T08:00:37.945Z,14.54
2019-05-29T08:03:10.407Z,14.32
2019-05-29T08:05:46.007Z,14.48
2019-05-29T08:08:14.939Z,14.45
2019-05-29T08:10:47.544Z,14.72
2019-05-29T08:13:18.666Z,15.00
2019-05-29T08:16:01.571Z,15.30
2019-05-29T08:18:22.816Z,15.59
2019-05-29T08:20:54.010Z,15.85
2019-05-29T08:23:25.041Z,16.07
2019-05-29T08:25:56.210Z,16.12
2019-05-29T08:28:27.191Z,16.01
2019-05-29T08:31:02.693Z,15.93
2019-05-29T08:33:33.792Z,16.01
2019-05-29T08:36:04.047Z,16.14
2019-05-29T08:38:36.393Z,16.10
2019-05-29T08:41:07.363Z,16.13
2019-05-29T08:43:38.463Z,16.17
2019-05-29T08:46:09.365Z,16.30
2019-05-29T08:48:41.666Z,16.13
2019-05-29T08:51:12.784Z,15.89
2019-05-29T08:53:44.185Z,15.94
2019-05-29T08:56:15.321Z,15.98
2019-05-29T08:58:46.783Z,16.13
2019-05-29T09:01:17.811Z,16.58
2019-05-29T09:03:49.059Z,16.75
2019-05-29T09:06:20.099Z,16.68
2019-05-29T09:08:52.092Z,16.86
2019-05-29T09:11:23.396Z,17.20
2019-05-29T09:13:54.466Z,17.31
2019-05-29T09:16:25.790Z,17.60
2019-05-29T09:18:56.759Z,17.59
2019-05-29T09:21:27.856Z,17.49
2019-05-29T09:23:59.237Z,17.42
2019-05-29T09:26:30.344Z,17.02
2019-05-29T09:29:01.324Z,16.74
2019-05-29T09:31:32.508Z,16.47
2019-05-29T09:34:03.591Z,16.09
2019-05-29T09:36:34.871Z,16.17
2019-05-29T09:39:08.502Z,15.60
2019-05-29T09:41:38.535Z,15.59
2019-05-29T09:44:25.115Z,15.54
2019-05-29T09:46:42.483Z,15.37
2019-05-29T09:49:13.725Z,15.32
2019-05-29T09:51:44.787Z,15.31
2019-05-29T09:54:15.990Z,15.12
2019-05-29T09:56:46.923Z,15.13
2019-05-29T09:59:18.157Z,15.05
2019-05-29T10:01:49.144Z,15.02
2019-05-29T10:04:20.379Z,15.04
2019-05-29T10:06:51.266Z,15.25
2019-05-29T10:09:22.591Z,15.35
2019-05-29T10:11:58.494Z,15.34
2019-05-29T10:14:27.992Z,15.15
2019-05-29T10:17:04.513Z,14.91
2019-05-29T10:19:30.809Z,14.81
2019-05-29T10:22:03.938Z,14.76
2019-05-29T10:24:34.727Z,15.02
2019-05-29T10:27:06.787Z,15.24
2019-05-29T10:29:37.800Z,15.51
2019-05-29T10:32:08.887Z,15.88
2019-05-29T10:34:40.041Z,16.09
2019-05-29T10:37:11.210Z,15.58
2019-05-29T10:39:42.808Z,15.39
2019-05-29T10:42:14.166Z,15.40
2019-05-29T10:44:45.132Z,15.27
2019-05-29T10:47:16.351Z,15.40
2019-05-29T10:49:47.706Z,15.56
2019-05-29T10:52:17.800Z,15.77
2019-05-29T10:54:48.824Z,16.05
2019-05-29T10:57:19.864Z,16.29
2019-05-29T10:59:51.018Z,16.57
2019-05-29T11:02:21.950Z,16.68
2019-05-29T11:04:56.341Z,16.74
2019-05-29T11:07:25.628Z,17.03
2019-05-29T11:09:56.755Z,17.39
2019-05-29T11:12:28.513Z,17.72
2019-05-29T11:15:00.010Z,18.05
2019-05-29T11:17:31.060Z,18.58
2019-05-29T11:20:02.305Z,19.19
2019-05-29T11:22:33.264Z,19.30
2019-05-29T11:25:22.104Z,19.43
2019-05-29T11:27:37.002Z,19.52
2019-05-29T11:30:11.778Z,19.18
2019-05-29T11:32:47.139Z,19.70
2019-05-29T11:35:15.998Z,19.87
2019-05-29T11:37:47.316Z,19.76
2019-05-29T11:40:19.380Z,19.86
2019-05-29T11:42:50.834Z,18.94
2019-05-29T11:45:22.372Z,18.94
2019-05-29T11:47:54.699Z,19.40
2019-05-29T11:50:26.432Z,19.23
2019-05-29T11:52:58.554Z,19.24
2019-05-29T11:55:29.554Z,18.93
2019-05-29T11:58:02.017Z,18.32
2019-05-29T12:00:33.142Z,18.25
2019-05-29T12:03:03.427Z,17.84
2019-05-29T12:05:34.604Z,17.40
2019-05-29T12:08:05.719Z,17.00
2019-05-29T12:10:36.885Z,16.81
2019-05-29T12:13:07.879Z,16.65
2019-05-29T12:15:39.109Z,16.30
2019-05-29T12:18:22.794Z,16.63
2019-05-29T12:20:43.195Z,16.94
2019-05-29T12:23:25.866Z,16.37
2019-05-29T12:25:47.169Z,16.15
2019-05-29T12:28:18.156Z,16.16
2019-05-29T12:30:49.425Z,15.92
2019-05-29T12:33:20.446Z,16.09
2019-05-29T12:35:50.586Z,16.23
2019-05-29T12:38:21.899Z,16.39
2019-05-29T12:40:53.472Z,16.51
2019-05-29T12:43:27.754Z,16.52
2019-05-29T12:45:57.931Z,16.56
2019-05-29T12:48:29.295Z,16.62
2019-05-29T12:51:00.398Z,16.57
2019-05-29T12:53:33.030Z,16.77
2019-05-29T12:56:04.729Z,17.00
2019-05-29T12:58:36.055Z,17.25
2019-05-29T13:01:07.096Z,17.34
2019-05-29T13:03:40.499Z,17.42
2019-05-29T13:06:11.514Z,17.69
2019-05-29T13:08:41.721Z,17.82
2019-05-29T13:11:12.946Z,17.42
2019-05-29T13:13:43.900Z,17.61
2019-05-29T13:16:15.052Z,18.20
2019-05-29T13:18:46.099Z,18.31
2019-05-29T13:21:17.316Z,18.76
2019-05-29T13:23:48.517Z,20.03
2019-05-29T13:26:19.585Z,20.36
2019-05-29T13:28:50.549Z,20.82
2019-05-29T13:31:21.816Z,21.49
2019-05-29T13:33:52.955Z,21.13
2019-05-29T13:36:24.247Z,21.48
2019-05-29T13:38:55.977Z,21.48
2019-05-29T13:41:26.014Z,22.25
2019-05-29T13:44:00.706Z,22.21
2019-05-29T13:46:31.006Z,21.57
2019-05-29T13:49:05.396Z,21.33
2019-05-29T13:51:40.810Z,20.70
2019-05-29T13:54:17.530Z,20.36
2019-05-29T13:56:44.920Z,20.97
2019-05-29T13:59:15.915Z,21.86
2019-05-29T14:01:48.548Z,21.99
2019-05-29T14:04:19.915Z,21.70
2019-05-29T14:06:53.036Z,20.73
2019-05-29T14:09:23.981Z,20.14
2019-05-29T14:11:55.053Z,18.93
2019-05-29T14:14:26.325Z,17.90
2019-05-29T14:16:57.345Z,17.90
2019-05-29T14:19:27.512Z,17.95
2019-05-29T14:21:58.613Z,17.88
2019-05-29T14:24:30.494Z,17.77
2019-05-29T14:27:01.807Z,17.76
2019-05-29T14:29:32.881Z,17.94
2019-05-29T14:32:05.076Z,17.78
2019-05-29T14:34:36.174Z,18.02
2019-05-29T14:37:07.926Z,17.93
2019-05-29T14:39:39.165Z,18.17
2019-05-29T14:42:10.371Z,18.53
2019-05-29T14:44:41.334Z,18.52
2019-05-29T14:47:13.455Z,18.05
2019-05-29T14:49:44.443Z,17.26
2019-05-29T14:52:14.597Z,16.81
2019-05-29T14:54:45.767Z,16.55
2019-05-29T14:57:25.216Z,16.65
2019-05-29T14:59:50.633Z,16.52
2019-05-29T15:02:24.132Z,16.35
2019-05-29T15:04:54.502Z,16.41
2019-05-29T15:07:25.583Z,16.37
2019-05-29T15:09:56.778Z,16.42
2019-05-29T15:12:27.696Z,16.51
2019-05-29T15:14:58.879Z,16.63
2019-05-29T15:17:29.966Z,16.79
2019-05-29T15:20:01.247Z,16.73
2019-05-29T15:22:32.162Z,16.89
2019-05-29T15:25:12.356Z,16.79
2019-05-29T15:27:35.262Z,16.99
2019-05-29T15:30:08.561Z,17.02
2019-05-29T15:32:40.374Z,16.67
2019-05-29T15:35:14.897Z,16.65
2019-05-29T15:37:44.381Z,16.83
2019-05-29T15:40:16.928Z,16.80
2019-05-29T15:42:48.272Z,16.74
2019-05-29T15:45:20.807Z,16.62
2019-05-29T15:47:52.018Z,16.57
2019-05-29T15:50:23.036Z,16.62
2019-05-29T15:52:54.419Z,16.59
2019-05-29T15:55:33.930Z,16.68
2019-05-29T15:57:58.258Z,16.40
2019-05-29T16:00:29.239Z,16.66
2019-05-29T16:02:59.367Z,16.89
2019-05-29T16:05:30.635Z,16.96
2019-05-29T16:08:01.748Z,17.04
2019-05-29T16:10:32.943Z,17.11
2019-05-29T16:13:03.915Z,17.16
2019-05-29T16:15:35.154Z,17.15
2019-05-29T16:18:18.978Z,16.87
2019-05-29T16:20:39.350Z,16.87
2019-05-29T16:23:13.917Z,16.79
2019-05-29T16:25:44.887Z,16.53
2019-05-29T16:28:17.011Z,16.68
2019-05-29T16:30:48.684Z,16.83
2019-05-29T16:33:19.609Z,16.83
2019-05-29T16:35:49.771Z,16.75
2019-05-29T16:38:21.832Z,16.78
2019-05-29T16:40:52.831Z,16.82
2019-05-29T16:43:35.448Z,16.74
2019-05-29T16:46:15.419Z,16.83
2019-05-29T16:48:58.795Z,16.85
2019-05-29T16:51:35.868Z,16.87
2019-05-29T16:54:46.568Z,16.95
2019-05-29T16:57:24.786Z,16.94
2019-05-29T17:00:00.963Z,16.91
2019-05-29T17:02:40.030Z,16.91
2019-05-29T17:05:22.178Z,16.89
2019-05-29T17:08:06.172Z,16.82
2019-05-29T17:23:25.798Z,16.10
2019-05-29T17:29:53.138Z,16.03
2019-05-29T17:32:31.151Z,16.09
2019-05-29T17:38:47.167Z,16.08
2019-05-29T17:41:43.382Z,16.10
2019-05-29T17:44:32.289Z,16.27
2019-05-29T17:47:17.746Z,16.77
2019-05-29T17:54:37.984Z,16.95
2019-05-29T18:00:47.767Z,16.84
2019-05-29T18:14:27.945Z,16.01
2019-05-29T18:16:59.002Z,15.87
2019-05-29T18:19:29.816Z,15.69
2019-05-29T18:22:00.993Z,15.55
2019-05-29T18:24:31.964Z,15.46
2019-05-29T18:27:03.285Z,15.30
2019-05-29T18:29:34.191Z,15.20
2019-05-29T18:32:05.546Z,15.10
2019-05-29T18:34:36.676Z,14.99
2019-05-29T18:37:07.915Z,14.89
2019-05-29T18:39:38.853Z,14.83
2019-05-29T18:42:10.025Z,14.76
2019-05-29T18:44:41.397Z,14.66
2019-05-29T18:47:11.768Z,14.53
2019-05-29T18:49:42.964Z,14.39
2019-05-29T18:52:13.863Z,14.23
2019-05-29T18:54:44.968Z,14.09
2019-05-29T18:57:16.353Z,13.95
2019-05-29T18:59:47.457Z,13.83
2019-05-29T19:02:18.387Z,13.68
2019-05-29T19:04:49.808Z,13.56
2019-05-29T19:07:23.867Z,13.44
2019-05-29T19:09:56.058Z,13.32
2019-05-29T19:12:27.846Z,13.22
2019-05-29T19:14:59.208Z,13.14
2019-05-29T19:17:30.149Z,13.06
2019-05-29T19:20:00.154Z,12.94
2019-05-29T19:22:32.691Z,12.84
2019-05-29T19:25:05.606Z,12.73
2019-05-29T19:27:41.694Z,12.63
2019-05-29T19:30:09.912Z,12.56
2019-05-29T19:32:41.179Z,12.45
2019-05-29T19:35:12.607Z,12.40
2019-05-29T19:37:44.183Z,12.34
2019-05-29T19:40:17.560Z,12.25
2019-05-29T19:42:48.828Z,12.20
2019-05-29T19:45:20.242Z,12.13
2019-05-29T19:47:51.484Z,12.04
2019-05-29T19:50:22.329Z,11.92
2019-05-29T19:52:53.356Z,11.92
2019-05-29T19:55:25.532Z,11.88
2019-05-29T19:57:56.841Z,11.75
2019-05-29T20:00:28.141Z,11.64
2019-05-29T20:03:00.084Z,11.53
2019-05-29T20:05:31.122Z,11.45
2019-05-29T20:08:01.984Z,11.41
2019-05-29T20:10:33.439Z,11.37
2019-05-29T20:13:04.821Z,11.33
2019-05-29T20:15:36.145Z,11.28
2019-05-29T20:18:07.056Z,11.21
2019-05-29T20:20:38.723Z,11.14
2019-05-29T20:23:09.679Z,11.11
2019-05-29T20:25:40.802Z,11.09
2019-05-29T20:28:11.739Z,11.05
2019-05-29T20:30:42.721Z,11.03
2019-05-29T20:33:14.225Z,11.01
2019-05-29T20:35:45.079Z,10.96
2019-05-29T20:38:16.217Z,10.79
2019-05-29T20:40:47.087Z,10.66
2019-05-29T20:43:18.139Z,10.63
2019-05-29T20:45:48.979Z,10.53
2019-05-29T20:48:20.139Z,10.40
2019-05-29T20:50:51.033Z,10.31
2019-05-29T20:53:22.254Z,10.18
2019-05-29T20:55:53.095Z,10.08
2019-05-29T20:58:25.117Z,10.04
2019-05-29T21:00:56.049Z,10.01
2019-05-29T21:03:26.107Z,9.88
2019-05-29T21:05:57.103Z,9.78
2019-05-29T21:08:27.956Z,9.72
2019-05-29T21:10:59.145Z,9.67
2019-05-29T21:13:30.013Z,9.65
2019-05-29T21:16:01.397Z,9.65
2019-05-29T21:18:39.933Z,9.61
2019-05-29T21:21:38.301Z,9.53
2019-05-29T21:24:20.252Z,9.45
2019-05-29T21:27:01.229Z,9.35
2019-05-29T21:33:27.679Z,9.37
2019-05-29T21:36:08.043Z,9.31
2019-05-29T21:38:49.451Z,9.27
2019-05-29T21:41:28.405Z,9.18
2019-05-29T21:44:16.903Z,9.12
2019-05-29T21:46:59.368Z,9.09
2019-05-29T21:49:41.007Z,9.01
2019-05-29T21:52:22.239Z,8.90
2019-05-29T21:55:03.319Z,8.80
2019-05-29T21:57:47.145Z,8.78
2019-05-29T22:00:30.026Z,8.66
2019-05-29T22:03:11.110Z,8.59
2019-05-29T22:05:51.923Z,8.55
2019-05-29T22:08:37.178Z,8.49
2019-05-29T22:11:19.663Z,8.42
2019-05-29T22:14:01.753Z,8.36
2019-05-29T22:16:42.251Z,8.30
2019-05-29T22:19:24.975Z,8.26
2019-05-29T22:22:05.945Z,8.26
2019-05-29T22:24:47.106Z,8.21
2019-05-29T22:27:29.433Z,8.17
2019-05-29T22:30:27.900Z,8.16
2019-05-29T22:33:09.419Z,8.14
2019-05-29T22:35:52.701Z,8.12
2019-05-29T22:38:36.163Z,8.07
2019-05-29T22:41:18.842Z,8.09
2019-05-29T22:44:09.300Z,7.93
2019-05-29T22:46:53.726Z,7.87
2019-05-29T22:50:02.285Z,7.90
2019-05-29T22:52:47.313Z,7.82
2019-05-29T22:55:32.986Z,7.62
2019-05-29T22:58:19.613Z,7.54
2019-05-29T23:01:05.034Z,7.53
2019-05-29T23:03:52.023Z,7.51
2019-05-29T23:06:35.542Z,7.48
2019-05-29T23:09:23.918Z,7.52
2019-05-29T23:11:56.289Z,7.43
2019-05-29T23:14:27.180Z,7.36
2019-05-29T23:16:58.592Z,7.26
2019-05-29T23:19:29.662Z,7.22
2019-05-29T23:22:01.163Z,7.20
2019-05-29T23:24:32.105Z,7.18
2019-05-29T23:27:03.376Z,7.12
2019-05-29T23:29:47.914Z,7.08
2019-05-29T23:32:06.330Z,7.06
2019-05-29T23:34:37.732Z,7.11
2019-05-29T23:37:08.696Z,7.21
2019-05-29T23:39:39.916Z,7.25
2019-05-29T23:42:10.934Z,7.23
2019-05-29T23:44:43.960Z,7.22
2019-05-29T23:47:14.994Z,7.15
2019-05-29T23:49:46.121Z,7.05
2019-05-29T23:52:17.128Z,7.01
2019-05-29T23:54:48.378Z,6.98
2019-05-29T23:57:19.286Z,6.90
